createdAt,value
2017-09-19T00:00:41.239Z,29.77
2017-09-19T00:03:07.855Z,30.90
2017-09-19T00:05:34.470Z,34.60
2017-09-19T00:08:01.118Z,30.10
2017-09-19T00:10:27.744Z,32.80
2017-09-19T00:12:54.363Z,32.23
2017-09-19T00:15:21.016Z,33.70
2017-09-19T00:17:47.639Z,34.33
2017-09-19T00:20:14.305Z,34.83
2017-09-19T00:22:40.914Z,32.27
2017-09-19T00:25:07.556Z,34.07
2017-09-19T00:27:34.201Z,36.57
2017-09-19T00:30:00.835Z,33.90
2017-09-19T00:32:27.444Z,32.93
2017-09-19T00:34:54.083Z,34.07
2017-09-19T00:37:20.714Z,34.03
2017-09-19T00:39:47.359Z,33.70
2017-09-19T00:42:14.004Z,34.27
2017-09-19T00:44:40.617Z,40.37
2017-09-19T00:47:07.255Z,35.90
2017-09-19T00:49:33.890Z,35.03
2017-09-19T00:52:00.510Z,33.47
2017-09-19T00:54:27.149Z,36.73
2017-09-19T00:56:53.796Z,37.53
2017-09-19T00:59:20.423Z,38.90
2017-09-19T01:01:47.087Z,33.97
2017-09-19T01:04:13.742Z,36.10
2017-09-19T01:06:40.370Z,35.17
2017-09-19T01:09:07.041Z,32.90
2017-09-19T01:11:33.665Z,34.27
2017-09-19T01:14:00.289Z,33.03
2017-09-19T01:16:26.920Z,32.93
2017-09-19T01:18:53.574Z,34.10
2017-09-19T01:21:20.207Z,36.43
2017-09-19T01:23:46.849Z,33.90
2017-09-19T01:26:13.468Z,36.00
2017-09-19T01:28:40.106Z,36.03
2017-09-19T01:31:06.792Z,35.43
2017-09-19T01:33:33.408Z,33.97
2017-09-19T01:36:00.048Z,34.13
2017-09-19T01:38:26.670Z,34.63
2017-09-19T01:40:53.291Z,35.97
2017-09-19T01:43:19.928Z,35.70
2017-09-19T01:45:46.567Z,33.57
2017-09-19T01:48:13.203Z,36.93
2017-09-19T01:50:40.099Z,36.00
2017-09-19T01:53:06.735Z,38.30
2017-09-19T01:55:33.355Z,37.67
2017-09-19T01:57:59.991Z,37.90
2017-09-19T02:00:26.626Z,36.90
2017-09-19T02:02:53.277Z,37.10
2017-09-19T02:05:19.903Z,35.07
2017-09-19T02:07:46.532Z,35.33
2017-09-19T02:10:13.190Z,41.47
2017-09-19T02:12:39.807Z,36.80
2017-09-19T02:15:06.418Z,34.70
2017-09-19T02:17:33.071Z,36.50
2017-09-19T02:19:59.695Z,34.20
2017-09-19T02:22:26.312Z,35.80
2017-09-19T02:24:52.948Z,35.93
2017-09-19T02:27:19.570Z,35.20
2017-09-19T02:29:46.212Z,34.30
2017-09-19T02:32:12.851Z,38.77
2017-09-19T02:34:39.490Z,34.37
2017-09-19T02:37:06.155Z,36.63
2017-09-19T02:39:32.775Z,39.00
2017-09-19T02:41:59.457Z,36.57
2017-09-19T02:44:26.092Z,35.67
2017-09-19T02:46:52.725Z,36.90
2017-09-19T02:49:19.338Z,35.97
2017-09-19T02:51:45.979Z,37.90
2017-09-19T02:54:12.607Z,39.47
2017-09-19T02:56:39.258Z,36.90
2017-09-19T02:59:05.907Z,35.97
2017-09-19T03:01:32.555Z,36.00
2017-09-19T03:03:59.175Z,41.03
2017-09-19T03:06:25.832Z,40.37
2017-09-19T03:08:52.450Z,41.27
2017-09-19T03:11:19.069Z,40.87
2017-09-19T03:13:45.742Z,38.40
2017-09-19T03:16:12.386Z,40.10
2017-09-19T03:18:39.347Z,35.30
2017-09-19T03:21:05.982Z,38.67
2017-09-19T03:23:32.595Z,40.40
2017-09-19T03:25:59.391Z,37.43
2017-09-19T03:28:26.293Z,37.37
2017-09-19T03:30:52.967Z,35.73
2017-09-19T03:33:19.615Z,37.93
2017-09-19T03:35:46.273Z,39.33
2017-09-19T03:38:12.903Z,36.27
2017-09-19T03:40:39.544Z,34.23
2017-09-19T03:43:06.587Z,35.10
2017-09-19T03:45:33.198Z,35.07
2017-09-19T03:47:59.863Z,38.80
2017-09-19T03:50:26.488Z,34.90
2017-09-19T03:52:53.099Z,37.23
2017-09-19T03:55:19.743Z,38.10
2017-09-19T03:57:46.386Z,33.83
2017-09-19T04:00:13.052Z,35.33
2017-09-19T04:02:39.694Z,35.90
2017-09-19T04:05:06.331Z,37.53
2017-09-19T04:07:32.979Z,36.87
2017-09-19T04:09:59.892Z,36.63
2017-09-19T04:12:26.552Z,34.67
2017-09-19T04:14:53.179Z,37.13
2017-09-19T04:17:19.817Z,37.50
2017-09-19T04:19:46.476Z,36.97
2017-09-19T04:22:13.095Z,36.27
2017-09-19T04:24:39.743Z,37.37
2017-09-19T04:27:06.366Z,39.73
2017-09-19T04:29:32.987Z,35.90
2017-09-19T04:31:59.623Z,34.87
2017-09-19T04:34:26.271Z,34.63
2017-09-19T04:36:52.943Z,34.90
2017-09-19T04:39:19.567Z,35.23
2017-09-19T04:41:46.192Z,31.73
2017-09-19T04:44:12.860Z,35.00
2017-09-19T04:46:39.843Z,31.70
2017-09-19T04:49:06.500Z,32.97
2017-09-19T04:51:33.118Z,31.83
2017-09-19T04:53:59.770Z,37.20
2017-09-19T04:56:26.402Z,34.27
2017-09-19T04:58:53.051Z,37.07
2017-09-19T05:01:19.665Z,35.00
2017-09-19T05:03:46.301Z,32.83
2017-09-19T05:06:12.940Z,33.37
2017-09-19T05:08:39.572Z,33.63
2017-09-19T05:11:06.200Z,35.17
2017-09-19T05:13:32.846Z,32.13
2017-09-19T05:15:59.504Z,32.70
2017-09-19T05:18:26.124Z,29.90
2017-09-19T05:20:52.749Z,32.03
2017-09-19T05:23:19.397Z,32.27
2017-09-19T05:25:46.020Z,34.00
2017-09-19T05:28:12.660Z,33.00
2017-09-19T05:30:39.306Z,31.63
2017-09-19T05:33:05.915Z,28.20
2017-09-19T05:35:32.544Z,31.80
2017-09-19T05:37:59.174Z,32.43
2017-09-19T05:40:25.824Z,32.83
2017-09-19T05:42:52.447Z,31.47
2017-09-19T05:45:19.077Z,28.43
2017-09-19T05:47:45.723Z,31.73
2017-09-19T05:50:12.370Z,30.80
2017-09-19T05:52:38.999Z,29.53
2017-09-19T05:55:05.638Z,30.63
2017-09-19T05:57:32.270Z,33.00
2017-09-19T05:59:58.899Z,32.90
2017-09-19T06:02:25.534Z,35.30
2017-09-19T06:04:52.166Z,32.47
2017-09-19T06:07:18.818Z,33.63
2017-09-19T06:09:45.462Z,32.13
2017-09-19T06:12:12.104Z,31.83
2017-09-19T06:14:38.769Z,32.53
2017-09-19T06:17:05.418Z,30.37
2017-09-19T06:19:32.050Z,30.33
2017-09-19T06:21:58.695Z,34.33
2017-09-19T06:24:25.335Z,33.20
2017-09-19T06:26:51.979Z,29.90
2017-09-19T06:29:18.602Z,31.93
2017-09-19T06:31:45.234Z,32.10
2017-09-19T06:34:11.876Z,35.13
2017-09-19T06:36:38.503Z,30.97
2017-09-19T06:39:05.145Z,30.47
2017-09-19T06:41:31.785Z,32.57
2017-09-19T06:43:58.418Z,30.60
2017-09-19T06:46:25.047Z,30.43
2017-09-19T06:48:51.673Z,31.00
2017-09-19T06:51:18.323Z,33.60
2017-09-19T06:53:44.943Z,32.03
2017-09-19T06:56:11.575Z,29.70
2017-09-19T06:58:38.215Z,32.57
2017-09-19T07:01:04.852Z,28.40
2017-09-19T07:03:31.488Z,30.27
2017-09-19T07:05:58.139Z,27.23
2017-09-19T07:08:24.786Z,29.80
2017-09-19T07:10:51.403Z,30.47
2017-09-19T07:13:18.043Z,32.87
2017-09-19T07:15:44.674Z,31.27
2017-09-19T07:18:11.300Z,30.53
2017-09-19T07:20:38.433Z,27.30
2017-09-19T07:23:05.060Z,24.90
2017-09-19T07:25:31.674Z,26.37
2017-09-19T07:27:58.350Z,23.50
2017-09-19T07:30:24.970Z,26.93
2017-09-19T07:32:51.639Z,25.67
2017-09-19T07:35:19.146Z,24.30
2017-09-19T07:37:45.807Z,25.97
2017-09-19T07:40:12.414Z,31.07
2017-09-19T07:42:39.246Z,31.10
2017-09-19T07:45:05.884Z,27.10
2017-09-19T07:47:32.500Z,30.40
2017-09-19T07:49:59.137Z,26.00
2017-09-19T07:52:25.758Z,31.00
2017-09-19T07:54:52.386Z,30.97
2017-09-19T07:57:19.035Z,27.80
2017-09-19T07:59:45.674Z,30.13
2017-09-19T08:02:12.306Z,31.60
2017-09-19T08:04:38.943Z,33.47
2017-09-19T08:07:05.570Z,31.27
2017-09-19T08:09:32.182Z,33.80
2017-09-19T08:11:58.820Z,32.07
2017-09-19T08:14:25.449Z,30.53
2017-09-19T08:16:52.103Z,27.23
2017-09-19T08:19:18.759Z,28.20
2017-09-19T08:21:45.365Z,29.67
2017-09-19T08:24:12.017Z,30.90
2017-09-19T08:26:38.643Z,27.47
2017-09-19T08:29:05.283Z,26.63
2017-09-19T08:31:31.892Z,28.53
2017-09-19T08:33:58.518Z,30.47
2017-09-19T08:36:25.138Z,30.03
2017-09-19T08:38:51.757Z,32.40
2017-09-19T08:41:18.406Z,31.03
2017-09-19T08:43:45.040Z,33.73
2017-09-19T08:46:11.648Z,29.63
2017-09-19T08:48:38.304Z,29.43
2017-09-19T08:51:04.935Z,31.83
2017-09-19T08:53:31.576Z,28.20
2017-09-19T08:55:58.200Z,29.47
2017-09-19T08:58:24.835Z,29.00
2017-09-19T09:00:51.472Z,27.57
2017-09-19T09:03:18.104Z,28.00
2017-09-19T09:05:44.755Z,27.00
2017-09-19T09:08:11.387Z,26.77
2017-09-19T09:10:38.039Z,25.30
2017-09-19T09:13:04.688Z,25.33
2017-09-19T09:15:31.332Z,26.27
2017-09-19T09:17:57.954Z,24.47
2017-09-19T09:20:24.586Z,23.07
2017-09-19T09:22:51.243Z,24.23
2017-09-19T09:25:17.870Z,27.43
2017-09-19T09:27:44.475Z,24.43
2017-09-19T09:30:11.119Z,27.20
2017-09-19T09:32:37.747Z,23.60
2017-09-19T09:35:04.376Z,26.57
2017-09-19T09:37:31.020Z,23.30
2017-09-19T09:39:57.681Z,23.00
2017-09-19T09:42:24.307Z,22.50
2017-09-19T09:44:50.944Z,20.97
2017-09-19T09:47:17.599Z,18.60
2017-09-19T09:49:44.234Z,20.30
2017-09-19T09:52:10.863Z,18.73
2017-09-19T09:54:37.507Z,21.23
2017-09-19T09:57:04.138Z,19.50
2017-09-19T09:59:30.788Z,18.67
2017-09-19T10:01:57.413Z,19.10
2017-09-19T10:04:24.045Z,19.10
2017-09-19T10:06:50.689Z,18.27
2017-09-19T10:09:17.306Z,15.70
2017-09-19T10:11:43.934Z,15.00
2017-09-19T10:14:10.608Z,17.10
2017-09-19T10:16:37.235Z,15.37
2017-09-19T10:19:03.880Z,15.87
2017-09-19T10:21:30.507Z,14.10
2017-09-19T10:23:57.141Z,14.93
2017-09-19T10:26:23.759Z,15.67
2017-09-19T10:28:50.377Z,15.60
2017-09-19T10:31:17.007Z,17.10
2017-09-19T10:33:43.638Z,16.60
2017-09-19T10:36:10.278Z,15.57
2017-09-19T10:38:36.909Z,13.93
2017-09-19T10:41:03.837Z,14.53
2017-09-19T10:43:30.447Z,15.30
2017-09-19T10:45:57.092Z,14.57
2017-09-19T10:48:23.748Z,15.53
2017-09-19T10:50:50.364Z,15.07
2017-09-19T10:53:17.000Z,16.37
2017-09-19T10:55:43.627Z,15.87
2017-09-19T10:58:10.269Z,16.90
2017-09-19T11:00:36.880Z,16.17
2017-09-19T11:03:03.540Z,17.30
2017-09-19T11:05:30.159Z,17.10
2017-09-19T11:07:56.791Z,18.73
2017-09-19T11:10:23.439Z,17.20
2017-09-19T11:12:50.074Z,17.37
2017-09-19T11:15:16.750Z,18.03
2017-09-19T11:17:43.363Z,16.57
2017-09-19T11:20:09.980Z,17.00
2017-09-19T11:22:36.618Z,16.50
2017-09-19T11:25:03.232Z,17.40
2017-09-19T11:27:29.857Z,16.40
2017-09-19T11:29:56.539Z,15.43
2017-09-19T11:32:23.151Z,13.80
2017-09-19T11:34:49.787Z,13.10
2017-09-19T11:37:16.427Z,13.73
2017-09-19T11:39:43.054Z,13.60
2017-09-19T11:42:09.668Z,13.13
2017-09-19T11:44:36.307Z,10.47
2017-09-19T11:47:02.967Z,10.80
2017-09-19T11:49:29.629Z,11.70
2017-09-19T11:51:56.280Z,13.40
2017-09-19T11:54:22.910Z,11.73
2017-09-19T11:56:49.532Z,10.97
2017-09-19T11:59:16.187Z,10.63
2017-09-19T12:01:42.848Z,12.23
2017-09-19T12:04:09.523Z,11.90
2017-09-19T12:06:36.156Z,12.20
2017-09-19T12:09:02.783Z,10.90
2017-09-19T12:11:29.431Z,11.20
2017-09-19T12:13:56.236Z,12.20
2017-09-19T12:16:22.878Z,13.23
2017-09-19T12:18:49.519Z,14.37
2017-09-19T12:21:16.177Z,12.37
2017-09-19T12:23:42.827Z,15.00
2017-09-19T12:26:09.469Z,12.27
2017-09-19T12:28:36.112Z,13.47
2017-09-19T12:31:02.730Z,14.30
2017-09-19T12:33:29.374Z,13.60
2017-09-19T12:35:56.015Z,15.00
2017-09-19T12:38:22.629Z,14.57
2017-09-19T12:40:49.278Z,14.47
2017-09-19T12:43:15.901Z,13.27
2017-09-19T12:45:42.579Z,13.53
2017-09-19T12:48:09.543Z,11.87
2017-09-19T12:50:36.159Z,11.23
2017-09-19T12:53:03.024Z,12.63
2017-09-19T12:55:29.630Z,8.90
2017-09-19T12:57:56.268Z,10.30
2017-09-19T13:00:22.902Z,12.40
2017-09-19T13:02:49.527Z,11.87
2017-09-19T13:05:16.160Z,13.80
2017-09-19T13:07:42.775Z,15.03
2017-09-19T13:10:09.431Z,14.03
2017-09-19T13:12:36.053Z,14.37
2017-09-19T13:15:02.691Z,14.23
2017-09-19T13:17:29.342Z,16.23
2017-09-19T13:19:55.951Z,15.73
2017-09-19T13:22:22.901Z,17.80
2017-09-19T13:24:49.532Z,17.23
2017-09-19T13:27:16.156Z,16.67
2017-09-19T13:29:42.770Z,18.33
2017-09-19T13:32:15.480Z,16.20
2017-09-19T13:34:42.088Z,15.33
2017-09-19T13:37:08.835Z,17.20
2017-09-19T13:39:35.478Z,15.27
2017-09-19T13:42:02.110Z,17.73
2017-09-19T13:44:28.740Z,18.10
2017-09-19T13:46:55.355Z,16.50
2017-09-19T13:49:22.014Z,14.07
2017-09-19T13:51:48.654Z,14.80
2017-09-19T13:54:15.301Z,13.83
2017-09-19T13:56:41.934Z,12.20
2017-09-19T13:59:08.559Z,12.97
2017-09-19T14:01:35.219Z,11.57
2017-09-19T14:04:01.879Z,10.20
2017-09-19T14:06:28.530Z,11.60
2017-09-19T14:08:55.168Z,12.77
2017-09-19T14:11:21.826Z,10.63
2017-09-19T14:13:48.458Z,12.50
2017-09-19T14:16:15.063Z,13.90
2017-09-19T14:18:41.706Z,15.17
2017-09-19T14:21:08.318Z,11.50
2017-09-19T14:23:34.978Z,12.90
2017-09-19T14:26:01.599Z,11.83
2017-09-19T14:28:28.292Z,12.93
2017-09-19T14:30:54.915Z,12.33
2017-09-19T14:33:21.574Z,12.63
2017-09-19T14:35:48.218Z,12.87
2017-09-19T14:38:14.846Z,14.67
2017-09-19T14:40:41.478Z,14.30
2017-09-19T14:43:08.095Z,13.20
2017-09-19T14:45:34.733Z,14.30
2017-09-19T14:48:01.369Z,14.77
2017-09-19T14:50:28.009Z,12.20
2017-09-19T14:52:54.630Z,12.00
2017-09-19T14:55:21.266Z,11.50
2017-09-19T14:57:47.883Z,11.87
2017-09-19T15:00:14.531Z,16.30
2017-09-19T15:02:41.145Z,15.00
2017-09-19T15:05:07.797Z,14.73
2017-09-19T15:07:34.452Z,15.17
2017-09-19T15:10:01.068Z,16.83
2017-09-19T15:12:27.699Z,14.83
2017-09-19T15:14:54.362Z,13.90
2017-09-19T15:17:20.988Z,15.37
2017-09-19T15:19:47.608Z,15.73
2017-09-19T15:22:14.685Z,16.50
2017-09-19T15:24:41.319Z,17.23
2017-09-19T15:27:07.965Z,16.43
2017-09-19T15:29:34.598Z,16.10
2017-09-19T15:32:01.227Z,16.13
2017-09-19T15:34:27.888Z,15.80
2017-09-19T15:36:54.520Z,15.00
2017-09-19T15:39:21.151Z,15.37
2017-09-19T15:41:47.766Z,14.37
2017-09-19T15:44:14.389Z,12.73
2017-09-19T15:46:41.032Z,10.90
2017-09-19T15:49:07.695Z,11.70
2017-09-19T15:51:34.358Z,12.07
2017-09-19T15:54:00.970Z,11.07
2017-09-19T15:56:27.590Z,12.27
2017-09-19T15:58:54.243Z,12.10
2017-09-19T16:01:20.903Z,13.00
2017-09-19T16:03:47.552Z,12.07
2017-09-19T16:06:14.194Z,10.83
2017-09-19T16:08:40.843Z,16.07
2017-09-19T16:11:07.478Z,13.60
2017-09-19T16:13:34.109Z,11.87
2017-09-19T16:16:00.752Z,13.83
2017-09-19T16:18:27.382Z,12.40
2017-09-19T16:20:54.033Z,14.53
2017-09-19T16:23:20.659Z,13.93
2017-09-19T16:25:47.307Z,12.37
2017-09-19T16:28:13.946Z,10.97
2017-09-19T16:30:40.582Z,10.93
2017-09-19T16:33:07.216Z,12.57
2017-09-19T16:35:33.851Z,13.83
2017-09-19T16:38:00.496Z,12.80
2017-09-19T16:40:27.148Z,13.53
2017-09-19T16:42:53.759Z,11.40
2017-09-19T16:45:20.413Z,12.47
2017-09-19T16:47:47.042Z,11.93
2017-09-19T16:50:13.654Z,11.97
2017-09-19T16:52:40.309Z,11.80
2017-09-19T16:55:06.983Z,13.57
2017-09-19T16:57:33.628Z,12.47
2017-09-19T17:00:00.299Z,10.83
2017-09-19T17:02:26.973Z,11.23
2017-09-19T17:04:53.627Z,13.50
2017-09-19T17:07:20.240Z,10.93
2017-09-19T17:09:46.893Z,10.93
2017-09-19T17:12:13.530Z,11.77
2017-09-19T17:14:40.151Z,12.40
2017-09-19T17:17:06.839Z,11.73
2017-09-19T17:19:33.494Z,12.50
2017-09-19T17:22:00.361Z,12.83
2017-09-19T17:24:26.990Z,11.70
2017-09-19T17:26:53.675Z,12.40
2017-09-19T17:29:20.323Z,13.17
2017-09-19T17:31:46.940Z,13.90
2017-09-19T17:34:13.587Z,10.93
2017-09-19T17:36:40.239Z,9.00
2017-09-19T17:39:06.923Z,9.60
2017-09-19T17:41:33.580Z,12.87
2017-09-19T17:44:00.242Z,13.43
2017-09-19T17:46:26.878Z,15.03
2017-09-19T17:48:53.533Z,14.30
2017-09-19T17:51:20.171Z,15.33
2017-09-19T17:53:46.897Z,13.20
2017-09-19T17:56:13.523Z,15.10
2017-09-19T17:58:40.143Z,15.50
2017-09-19T18:01:06.784Z,15.33
2017-09-19T18:03:33.428Z,13.87
2017-09-19T18:06:00.060Z,13.20
2017-09-19T18:08:26.764Z,14.43
2017-09-19T18:10:53.391Z,12.83
2017-09-19T18:13:20.076Z,12.93
2017-09-19T18:15:46.696Z,15.93
2017-09-19T18:18:13.342Z,15.87
2017-09-19T18:20:40.047Z,16.63
2017-09-19T18:23:06.665Z,14.80
2017-09-19T18:25:33.313Z,16.73
2017-09-19T18:27:59.949Z,16.43
2017-09-19T18:30:26.599Z,16.47
2017-09-19T18:32:53.220Z,18.60
2017-09-19T18:35:19.860Z,18.13
2017-09-19T18:37:46.529Z,20.37
2017-09-19T18:40:13.149Z,18.23
2017-09-19T18:42:39.819Z,14.20
2017-09-19T18:45:06.501Z,15.23
2017-09-19T18:47:33.108Z,16.60
2017-09-19T18:49:59.745Z,17.10
2017-09-19T18:52:26.423Z,18.23
2017-09-19T18:54:53.078Z,17.00
2017-09-19T18:57:19.742Z,16.10
2017-09-19T18:59:46.416Z,17.23
2017-09-19T19:02:13.089Z,17.30
2017-09-19T19:04:39.733Z,16.00
2017-09-19T19:07:06.417Z,13.93
2017-09-19T19:09:33.111Z,15.73
2017-09-19T19:12:00.014Z,12.67
2017-09-19T19:14:26.681Z,12.00
2017-09-19T19:16:53.337Z,14.37
2017-09-19T19:19:20.001Z,15.43
2017-09-19T19:21:46.692Z,16.97
2017-09-19T19:24:13.348Z,17.17
2017-09-19T19:26:40.268Z,18.17
2017-09-19T19:29:06.899Z,19.27
2017-09-19T19:31:33.564Z,17.83
2017-09-19T19:34:00.197Z,17.80
2017-09-19T19:36:26.837Z,21.00
2017-09-19T19:38:53.509Z,22.50
2017-09-19T19:41:20.123Z,18.10
2017-09-19T19:43:46.793Z,22.23
2017-09-19T19:46:13.459Z,19.97
2017-09-19T19:48:40.108Z,19.80
2017-09-19T19:51:07.120Z,17.67
2017-09-19T19:53:33.746Z,17.77
2017-09-19T19:56:00.400Z,19.67
2017-09-19T19:58:27.026Z,20.23
2017-09-19T20:00:53.766Z,19.30
2017-09-19T20:03:20.381Z,21.33
2017-09-19T20:05:47.037Z,20.03
2017-09-19T20:08:13.728Z,20.63
2017-09-19T20:10:40.357Z,19.90
2017-09-19T20:13:07.021Z,21.33
2017-09-19T20:15:33.637Z,21.37
2017-09-19T20:18:00.288Z,21.20
2017-09-19T20:20:26.943Z,20.80
2017-09-19T20:22:53.567Z,21.07
2017-09-19T20:25:20.216Z,19.50
2017-09-19T20:27:46.844Z,22.57
2017-09-19T20:30:13.519Z,21.53
2017-09-19T20:32:40.159Z,22.20
2017-09-19T20:35:06.803Z,18.73
2017-09-19T20:37:33.482Z,18.50
2017-09-19T20:40:00.128Z,18.70
2017-09-19T20:42:26.784Z,28.27
2017-09-19T20:44:53.415Z,21.30
2017-09-19T20:47:20.069Z,20.13
2017-09-19T20:49:46.814Z,19.47
2017-09-19T20:52:13.591Z,20.17
2017-09-19T20:54:40.240Z,19.70
2017-09-19T20:57:06.880Z,21.97
2017-09-19T20:59:33.518Z,19.63
2017-09-19T21:02:00.180Z,17.53
2017-09-19T21:04:32.581Z,15.97
2017-09-19T21:07:04.995Z,14.87
2017-09-19T21:09:37.917Z,11.70
2017-09-19T21:12:10.243Z,13.70
2017-09-19T21:14:42.686Z,14.10
2017-09-19T21:17:15.275Z,14.80
2017-09-19T21:19:41.508Z,18.03
2017-09-19T21:22:08.172Z,10.43
2017-09-19T21:24:34.800Z,11.23
2017-09-19T21:27:01.430Z,11.97
2017-09-19T21:29:28.059Z,12.13
2017-09-19T21:31:54.733Z,12.80
2017-09-19T21:34:21.355Z,8.80
2017-09-19T21:36:48.002Z,11.17
2017-09-19T21:39:14.670Z,12.20
2017-09-19T21:41:41.316Z,11.73
2017-09-19T21:44:07.939Z,9.10
2017-09-19T21:46:34.575Z,10.80
2017-09-19T21:49:01.214Z,10.67
2017-09-19T21:51:27.843Z,15.87
2017-09-19T21:53:54.479Z,15.00
2017-09-19T21:56:21.132Z,9.07
2017-09-19T21:58:47.751Z,9.90
2017-09-19T22:01:14.381Z,12.70
2017-09-19T22:03:41.031Z,11.63
2017-09-19T22:06:07.672Z,11.17
2017-09-19T22:08:34.319Z,14.20
2017-09-19T22:11:00.976Z,11.93
2017-09-19T22:13:27.608Z,13.00
2017-09-19T22:15:54.257Z,10.17
2017-09-19T22:18:20.909Z,10.27
2017-09-19T22:20:47.556Z,12.33
2017-09-19T22:23:14.213Z,15.63
2017-09-19T22:25:40.837Z,12.27
2017-09-19T22:28:07.495Z,12.00
2017-09-19T22:30:34.118Z,10.50
2017-09-19T22:33:00.755Z,10.10
2017-09-19T22:35:27.394Z,11.03
2017-09-19T22:37:54.019Z,9.60
2017-09-19T22:40:20.671Z,15.20
2017-09-19T22:42:47.311Z,17.83
2017-09-19T22:45:13.966Z,17.17
2017-09-19T22:47:40.599Z,18.23
2017-09-19T22:50:07.248Z,17.90
2017-09-19T22:52:33.870Z,26.87
2017-09-19T22:55:00.531Z,24.73
2017-09-19T22:57:27.164Z,24.73
2017-09-19T22:59:53.787Z,25.90
2017-09-19T23:02:20.422Z,23.47
2017-09-19T23:04:47.080Z,19.50
2017-09-19T23:07:13.727Z,18.33
2017-09-19T23:09:40.364Z,18.73
2017-09-19T23:12:07.021Z,19.87
2017-09-19T23:14:33.676Z,20.77
2017-09-19T23:17:00.299Z,22.70
2017-09-19T23:19:26.967Z,23.70
2017-09-19T23:21:53.619Z,26.37
2017-09-19T23:24:20.279Z,22.33
2017-09-19T23:26:46.912Z,22.90
2017-09-19T23:29:13.560Z,21.40
2017-09-19T23:31:40.176Z,22.00
2017-09-19T23:34:06.826Z,24.07
2017-09-19T23:36:33.462Z,22.83
2017-09-19T23:39:00.082Z,24.60
2017-09-19T23:41:26.958Z,28.70
2017-09-19T23:43:53.616Z,27.87
2017-09-19T23:46:20.244Z,25.83
2017-09-19T23:48:46.883Z,23.40
2017-09-19T23:51:13.509Z,23.80
2017-09-19T23:53:40.136Z,25.20
2017-09-19T23:56:06.792Z,24.97
2017-09-19T23:58:33.423Z,24.60
